»·PEaware :: N6065L KBUR-KGCN

N6065L :: KBUR-KGCN

FLIGHT INFORMATION

Flight Status: Arrived
Operator: Privately registered:
United States
More flights under this callsign
Pilot: Kyle A. (14988)
Aircraft: Unknown
(T210)
More flights by this aircraft type
Origin: KBUR Bob Hope-Burbank
United States
Destination: KGCN Grand Canyon Natl Park
United States
More flights between these airports :: More routes between these airports
Route: +VNY3 DAG GFS V210 PGS SAVRE
File this flight plan on PilotEdge
Remarks:
Altitude:
(Current/Filed)
11,000ft
Speed:
(Current/Filed)
150kts
Departed: 23-Jan-18 12:02 PM
Arrived: 23-Jan-18 02:10 PM
Distance/Time
Traveled:
323nm/2:08
Distance/Time
To Go:
Arrived

Flight Plot

Page will automatically refresh every two minutes.

Flight plan parsing failed; only flown route is shown


Map Options




Map Legend


Flown Route
Filed Route
Departure Airport
Arrival Airport
Navaid (VOR, NDB)
Fix

Horizontal Profiles

Position Reports

Time Latitude Longitude Heading Altitude Ground
Speed
23-Jan-18 11:54 34.200256 -118.359476 169 780ft 0kts
23-Jan-18 11:55 34.200256 -118.359476 169 780ft 0kts
23-Jan-18 11:56 34.200256 -118.359476 169 780ft 0kts
23-Jan-18 11:57 34.200256 -118.359476 169 780ft 0kts
23-Jan-18 11:58 34.200256 -118.359476 169 780ft 0kts
23-Jan-18 11:59 34.200256 -118.359476 169 780ft 0kts
23-Jan-18 12:00 34.200256 -118.359476 169 780ft 0kts
23-Jan-18 12:01 34.199594 -118.358409 97 780ft 9kts
23-Jan-18 12:02 34.203534 -118.359191 347 780ft 16kts
23-Jan-18 12:03 34.208216 -118.360468 346 780ft 16kts
23-Jan-18 12:04 34.211556 -118.361170 41 780ft 0kts
23-Jan-18 12:05 34.211556 -118.361170 41 780ft 0kts
23-Jan-18 12:06 34.211556 -118.361170 41 780ft 0kts
23-Jan-18 12:07 34.211561 -118.361165 40 780ft 1kts
23-Jan-18 12:08 34.199355 -118.357067 171 914ft 95kts
23-Jan-18 12:09 34.176039 -118.365766 224 2008ft 96kts
23-Jan-18 12:10 34.157824 -118.388249 252 3045ft 96kts
23-Jan-18 12:11 34.175324 -118.405349 348 4060ft 97kts
23-Jan-18 12:12 34.203004 -118.412495 348 5059ft 104kts
23-Jan-18 12:13 34.231393 -118.419614 352 6120ft 104kts
23-Jan-18 12:14 34.260104 -118.424824 353 7166ft 106kts
23-Jan-18 12:15 34.292373 -118.430633 353 7944ft 123kts
23-Jan-18 12:16 34.326585 -118.439646 345 8764ft 129kts
23-Jan-18 12:17 34.362250 -118.452839 344 9439ft 140kts
23-Jan-18 12:18 34.395442 -118.438427 49 10013ft 146kts
23-Jan-18 12:19 34.420957 -118.399695 51 10634ft 148kts
23-Jan-18 12:20 34.446539 -118.359507 51 11026ft 160kts
23-Jan-18 12:21 34.474847 -118.314614 51 11026ft 172kts
23-Jan-18 12:22 34.502415 -118.270572 52 11023ft 160kts
23-Jan-18 12:23 34.529230 -118.227733 52 11017ft 158kts
23-Jan-18 12:24 34.555794 -118.185243 51 11005ft 158kts
23-Jan-18 12:25 34.582546 -118.142447 51 11005ft 166kts
23-Jan-18 12:26 34.611228 -118.096425 52 11001ft 174kts
23-Jan-18 12:27 34.615254 -118.089960 52 11001ft 175kts
23-Jan-18 12:28 34.634431 -118.036883 81 10999ft 177kts
23-Jan-18 12:29 34.640889 -117.977756 80 10998ft 178kts
23-Jan-18 12:30 34.647388 -117.918264 80 10997ft 178kts
23-Jan-18 12:31 34.652798 -117.868573 80 10995ft 178kts
23-Jan-18 12:32 34.660360 -117.798777 80 10947ft 181kts
23-Jan-18 12:33 34.668241 -117.748371 72 10872ft 184kts
23-Jan-18 12:34 34.685905 -117.679009 71 10770ft 185kts
23-Jan-18 12:35 34.698658 -117.629212 71 10698ft 185kts
23-Jan-18 12:36 34.713942 -117.569480 71 10643ft 184kts
23-Jan-18 12:37 34.728673 -117.511744 71 10948ft 171kts
23-Jan-18 12:38 34.743063 -117.455311 71 11001ft 179kts
23-Jan-18 12:39 34.757930 -117.396770 71 10996ft 182kts
23-Jan-18 12:40 34.772775 -117.338205 71 10988ft 181kts
23-Jan-18 12:41 34.787429 -117.280298 71 11026ft 177kts
23-Jan-18 12:42 34.801777 -117.223483 71 11079ft 174kts
23-Jan-18 12:43 34.815969 -117.167165 71 11147ft 173kts
23-Jan-18 12:44 34.830370 -117.109839 71 11046ft 177kts
23-Jan-18 12:45 34.844762 -117.052392 70 11012ft 176kts
23-Jan-18 12:46 34.858930 -116.995776 70 11012ft 174kts
23-Jan-18 12:47 34.872953 -116.939611 70 11021ft 172kts
23-Jan-18 12:48 34.886888 -116.883691 69 11026ft 171kts
23-Jan-18 12:49 34.900682 -116.828272 69 11026ft 172kts
23-Jan-18 12:50 34.914642 -116.772013 69 11026ft 173kts
23-Jan-18 12:51 34.928529 -116.715911 69 11026ft 173kts
23-Jan-18 12:52 34.942410 -116.659710 69 11026ft 173kts
23-Jan-18 12:53 34.956336 -116.603205 69 11026ft 174kts
23-Jan-18 12:54 34.966578 -116.545506 77 11026ft 175kts
23-Jan-18 12:55 34.974033 -116.486544 77 11026ft 175kts
23-Jan-18 12:56 34.981389 -116.427841 77 11026ft 175kts
23-Jan-18 12:57 34.988711 -116.369158 78 11027ft 175kts
23-Jan-18 12:58 34.995910 -116.311263 78 11030ft 176kts
23-Jan-18 12:59 35.003197 -116.252393 78 11031ft 175kts
23-Jan-18 13:00 35.010458 -116.193504 78 11032ft 175kts
23-Jan-18 13:01 35.017702 -116.134515 78 11032ft 175kts
23-Jan-18 13:02 35.024908 -116.075585 78 11030ft 176kts
23-Jan-18 13:03 35.032097 -116.016550 78 11028ft 176kts
23-Jan-18 13:04 35.039255 -115.957524 79 11027ft 176kts
23-Jan-18 13:05 35.046386 -115.898454 79 11028ft 176kts
23-Jan-18 13:06 35.053513 -115.839194 78 11037ft 176kts
23-Jan-18 13:07 35.060600 -115.780014 78 11046ft 176kts
23-Jan-18 13:08 35.067688 -115.720460 78 11027ft 177kts
23-Jan-18 13:09 35.074764 -115.660832 78 11030ft 177kts
23-Jan-18 13:10 35.081830 -115.601056 78 11015ft 178kts
23-Jan-18 13:11 35.088865 -115.541292 78 11001ft 177kts
23-Jan-18 13:12 35.095850 -115.481685 78 10989ft 177kts
23-Jan-18 13:13 35.102570 -115.424127 78 10982ft 177kts
23-Jan-18 13:14 35.109466 -115.364797 78 10973ft 177kts
23-Jan-18 13:15 35.116260 -115.306057 79 10963ft 178kts
23-Jan-18 13:16 35.123159 -115.246164 79 10950ft 178kts
23-Jan-18 13:17 35.130052 -115.186056 78 10935ft 178kts
23-Jan-18 13:18 35.145640 -115.129697 65 10929ft 175kts
23-Jan-18 13:19 35.162621 -115.075091 65 11025ft 173kts
23-Jan-18 13:20 35.179703 -115.019933 65 11021ft 173kts
23-Jan-18 13:21 35.196687 -114.964984 65 11020ft 172kts
23-Jan-18 13:22 35.213628 -114.910073 65 11019ft 172kts
23-Jan-18 13:23 35.230460 -114.855417 65 11019ft 172kts
23-Jan-18 13:24 35.247294 -114.800643 65 11019ft 172kts
23-Jan-18 13:25 35.264111 -114.745832 65 11019ft 172kts
23-Jan-18 13:26 35.280883 -114.691051 65 11019ft 172kts
23-Jan-18 13:27 35.297602 -114.636350 65 11019ft 172kts
23-Jan-18 13:28 35.314349 -114.581453 65 11019ft 172kts
23-Jan-18 13:29 35.331012 -114.526712 65 11018ft 172kts
23-Jan-18 13:30 35.347711 -114.471775 65 11019ft 172kts
23-Jan-18 13:31 35.364366 -114.416850 65 11003ft 172kts
23-Jan-18 13:32 35.380974 -114.361998 65 11016ft 171kts
23-Jan-18 13:33 35.397309 -114.307945 66 11029ft 172kts
23-Jan-18 13:34 35.413861 -114.253060 66 11042ft 172kts
23-Jan-18 13:35 35.430439 -114.197978 66 11046ft 173kts
23-Jan-18 13:36 35.447204 -114.142166 66 11046ft 175kts
23-Jan-18 13:37 35.464041 -114.085997 66 11046ft 175kts
23-Jan-18 13:38 35.480897 -114.029666 66 11046ft 176kts
23-Jan-18 13:39 35.497693 -113.973427 66 11046ft 176kts
23-Jan-18 13:40 35.514482 -113.917099 66 11046ft 176kts
23-Jan-18 13:41 35.531217 -113.860843 66 11046ft 176kts
23-Jan-18 13:42 35.547993 -113.804340 66 11045ft 176kts
23-Jan-18 13:43 35.564683 -113.748010 66 11045ft 175kts
23-Jan-18 13:44 35.581388 -113.691521 66 11045ft 175kts
23-Jan-18 13:45 35.598046 -113.635078 66 11045ft 175kts
23-Jan-18 13:46 35.614778 -113.578323 67 11018ft 178kts
23-Jan-18 13:47 35.626558 -113.519257 82 11018ft 180kts
23-Jan-18 13:48 35.630569 -113.457893 81 11018ft 180kts
23-Jan-18 13:49 35.634683 -113.396322 82 11018ft 180kts
23-Jan-18 13:50 35.638759 -113.334926 82 11018ft 180kts
23-Jan-18 13:51 35.642754 -113.274329 82 11018ft 180kts
23-Jan-18 13:52 35.646786 -113.212675 82 11014ft 181kts
23-Jan-18 13:53 35.650782 -113.151043 82 11009ft 181kts
23-Jan-18 13:54 35.654752 -113.089335 82 11004ft 181kts
23-Jan-18 13:55 35.658691 -113.027605 83 11001ft 181kts
23-Jan-18 13:56 35.662590 -112.965975 83 11017ft 180kts
23-Jan-18 13:57 35.666435 -112.904762 83 11035ft 179kts
23-Jan-18 13:58 35.670235 -112.843770 83 11023ft 180kts
23-Jan-18 13:59 35.674010 -112.782607 83 11014ft 177kts
23-Jan-18 14:00 35.677658 -112.723147 83 11016ft 172kts
23-Jan-18 14:01 35.681249 -112.664204 83 11018ft 175kts
23-Jan-18 14:02 35.684850 -112.604283 83 11018ft 177kts
23-Jan-18 14:03 35.688480 -112.543506 83 11017ft 177kts
23-Jan-18 14:04 35.692045 -112.483420 82 11017ft 172kts
23-Jan-18 14:05 35.695222 -112.429449 82 11018ft 156kts
23-Jan-18 14:06 35.706779 -112.406114 42 11018ft 151kts
23-Jan-18 14:07 35.738368 -112.372160 39 10781ft 150kts
23-Jan-18 14:08 35.769450 -112.339464 40 10047ft 140kts
23-Jan-18 14:09 35.799170 -112.308362 40 9032ft 148kts
23-Jan-18 14:10 35.830424 -112.275346 39 9018ft 147kts
23-Jan-18 14:11 35.860887 -112.243024 40 8430ft 132kts
23-Jan-18 14:12 35.883298 -112.219624 37 7719ft 89kts
23-Jan-18 14:13 35.900279 -112.201946 41 7532ft 91kts
23-Jan-18 14:14 35.919092 -112.182078 41 7218ft 82kts
23-Jan-18 14:15 35.935142 -112.165040 41 6843ft 73kts
23-Jan-18 14:16 35.947297 -112.152004 85 6603ft 19kts
23-Jan-18 14:17 35.946997 -112.151009 84 6603ft 3kts
23-Jan-18 14:18 35.949572 -112.148068 40 6603ft 16kts
23-Jan-18 14:19 35.951872 -112.145664 40 6603ft 16kts
23-Jan-18 14:20 35.956051 -112.141225 39 6603ft 20kts
23-Jan-18 14:21 35.959615 -112.137423 72 6603ft 9kts
23-Jan-18 14:22 35.959248 -112.137117 220 6603ft 0kts
23-Jan-18 14:23 35.959248 -112.137117 220 6603ft 0kts

Navigation Log

Ident Type
Flight plan parsing failed, navigation log unavailable